Time;durP1;ratioP1;P1;durP2;ratioP2;P2;SDS_P1;SDS_P2;PMS_P1;PMS_P2;Temp;Humidity;BMP_temperature;BMP_pressure;BME280_temperature;BME280_humidity;BME280_pressure;Samples;Min_cycle;Max_cycle;Signal;HPM_P1;HPM_P2
2022/11/07 00:02:19;;;;;;;3.70;3.03;;;6.40;99.90;;;;;;5067486;28;20024;-70
2022/11/07 00:04:45;;;;;;;2.67;2.47;;;;;;;;;;5054744;28;20036;-71
2022/11/07 00:07:11;;;;;;;3.67;3.30;;;6.50;99.90;;;;;;5072784;28;20111;-72
2022/11/07 00:09:37;;;;;;;2.23;2.13;;;6.50;99.90;;;;;;5072695;28;20476;-71
2022/11/07 00:12:03;;;;;;;2.30;2.10;;;6.40;99.90;;;;;;5087254;28;20028;-70
2022/11/07 00:14:28;;;;;;;0.40;0.40;;;6.70;99.90;;;;;;5092637;28;20036;-71
2022/11/07 00:16:54;;;;;;;1.97;1.87;;;6.70;99.90;;;;;;5090928;28;20502;-71
2022/11/07 00:19:21;;;;;;;7.33;3.83;;;6.50;99.90;;;;;;5054560;28;20190;-71
2022/11/07 00:21:47;;;;;;;;;;;6.50;99.90;;;;;;5054786;28;20031;-72
2022/11/07 00:24:16;;;;;;;2.40;1.77;;;6.40;99.90;;;;;;5072942;28;19915;-70
2022/11/07 00:26:42;;;;;;;4.97;3.97;;;6.20;99.90;;;;;;5063980;28;20129;-71
2022/11/07 00:29:12;;;;;;;1.63;1.52;;;6.00;99.90;;;;;;5092802;28;20044;-71
2022/11/07 00:31:38;;;;;;;2.65;2.45;;;6.20;99.90;;;;;;5092528;28;20032;-71
2022/11/07 00:34:03;;;;;;;3.50;2.73;;;6.50;99.90;;;;;;5056730;28;20029;-71
2022/11/07 00:36:29;;;;;;;2.03;1.90;;;6.10;99.90;;;;;;5072176;28;20455;-70
2022/11/07 00:38:54;;;;;;;1.87;1.77;;;6.50;99.90;;;;;;5072490;28;20029;-71
2022/11/07 00:41:21;;;;;;;4.60;2.43;;;;;;;;;;5072587;28;20043;-71
2022/11/07 00:43:47;;;;;;;3.28;2.72;;;;;;;;;;5072453;28;20464;-71
2022/11/07 00:46:14;;;;;;;1.50;1.40;;;6.20;99.90;;;;;;5072334;28;20089;-70
2022/11/07 00:48:40;;;;;;;1.92;1.83;;;6.40;99.90;;;;;;5065592;28;20123;-70
2022/11/07 00:51:12;;;;;;;6.75;3.05;;;6.30;99.90;;;;;;5092224;28;20036;-71
2022/11/07 00:53:39;;;;;;;3.38;1.58;;;6.10;99.90;;;;;;5073778;28;20419;-71
2022/11/07 00:56:07;;;;;;;3.55;3.28;;;6.10;99.90;;;;;;5090962;28;20024;-70
2022/11/07 00:58:33;;;;;;;1.20;1.15;;;6.60;99.90;;;;;;5091240;28;20028;-70
2022/11/07 01:00:59;;;;;;;8.73;2.80;;;6.60;99.90;;;;;;5091971;28;20020;-70
2022/11/07 01:06:09;;;;;;;1.38;1.35;;;6.20;99.90;;;;;;5071614;28;20131;-71
2022/11/07 01:08:36;;;;;;;1.92;1.83;;;6.50;99.90;;;;;;5071093;28;20096;-71
2022/11/07 01:11:05;;;;;;;1.58;1.48;;;6.10;99.90;;;;;;5071327;28;20108;-70
2022/11/07 01:13:31;;;;;;;0.88;0.88;;;6.40;99.90;;;;;;5088428;28;20157;-70
2022/11/07 01:15:57;;;;;;;2.00;1.85;;;7.00;99.90;;;;;;5091639;28;20109;-71
2022/11/07 01:18:23;;;;;;;2.53;2.37;;;;;;;;;;5090087;28;20458;-71
2022/11/07 01:20:49;;;;;;;1.90;1.80;;;6.30;99.90;;;;;;5073314;28;20364;-70
2022/11/07 01:23:15;;;;;;;2.07;1.97;;;6.10;99.90;;;;;;5067702;28;20040;-70
2022/11/07 01:25:41;;;;;;;4.75;3.65;;;6.30;99.90;;;;;;5071083;28;20067;-71
2022/11/07 01:28:08;;;;;;;2.47;2.30;;;6.40;99.90;;;;;;5071384;28;20033;-70
2022/11/07 01:30:38;;;;;;;1.75;1.65;;;6.40;99.90;;;;;;5052878;28;20078;-71
2022/11/07 01:33:04;;;;;;;3.53;3.33;;;7.00;99.90;;;;;;5072329;28;20129;-71
2022/11/07 01:35:31;;;;;;;4.20;3.13;;;6.10;99.90;;;;;;5052459;28;20162;-70
2022/11/07 01:37:57;;;;;;;2.20;2.10;;;6.70;99.90;;;;;;5071181;28;20113;-72
2022/11/07 01:40:23;;;;;;;1.30;1.23;;;6.50;99.90;;;;;;5070943;28;20087;-71
2022/11/07 01:42:48;;;;;;;1.17;1.17;;;6.30;99.90;;;;;;5079320;28;20403;-71
2022/11/07 01:45:23;;;;;;;3.27;3.07;;;6.50;99.90;;;;;;5079858;28;20387;-72
2022/11/07 01:47:51;;;;;;;2.72;2.58;;;6.80;99.90;;;;;;5078500;28;20197;-71
2022/11/07 01:50:17;;;;;;;2.75;2.50;;;6.60;99.90;;;;;;5091087;28;20429;-71
2022/11/07 01:52:45;;;;;;;2.15;2.05;;;6.40;99.90;;;;;;5085996;28;20024;-71
2022/11/07 01:55:16;;;;;;;1.20;1.20;;;6.20;99.90;;;;;;5070743;28;20573;-71
2022/11/07 01:57:43;;;;;;;3.42;3.20;;;6.50;99.90;;;;;;5070765;28;20070;-71
2022/11/07 02:00:12;;;;;;;0.93;0.93;;;6.40;99.90;;;;;;5070585;28;20028;-71
2022/11/07 02:02:39;;;;;;;1.48;1.38;;;6.50;99.90;;;;;;5084448;28;20036;-70
2022/11/07 02:05:07;;;;;;;1.75;1.58;;;6.70;99.90;;;;;;5090769;28;20036;-71
2022/11/07 02:07:34;;;;;;;2.72;2.53;;;6.30;99.90;;;;;;5090812;28;20047;-70
2022/11/07 02:10:01;;;;;;;2.22;2.03;;;6.20;99.90;;;;;;5090770;28;20034;-71
2022/11/07 02:12:28;;;;;;;1.40;1.35;;;6.70;99.90;;;;;;5080785;28;20127;-71
2022/11/07 02:14:54;;;;;;;5.80;5.25;;;6.90;99.90;;;;;;5070361;28;20086;-70
2022/11/07 02:17:20;;;;;;;4.53;4.13;;;6.80;99.90;;;;;;5079892;28;20035;-71
2022/11/07 02:19:50;;;;;;;3.27;3.03;;;6.60;99.90;;;;;;5072365;28;20029;-71
2022/11/07 02:22:35;;;;;;;1.23;1.15;;;6.30;99.90;;;;;;5085391;28;20273;-71
2022/11/07 02:25:05;;;;;;;1.10;1.10;;;6.90;99.90;;;;;;5070404;28;20028;-71
2022/11/07 02:27:32;;;;;;;5.82;2.53;;;6.30;99.90;;;;;;5070323;28;20040;-70
2022/11/07 02:30:01;;;;;;;1.70;1.60;;;6.80;99.90;;;;;;5070109;28;20048;-70
2022/11/07 02:32:27;;;;;;;5.45;2.58;;;6.30;99.90;;;;;;5068370;28;20038;-70
2022/11/07 02:35:00;;;;;;;1.37;1.37;;;6.60;99.90;;;;;;5090244;28;20111;-71
2022/11/07 02:37:31;;;;;;;0.65;0.65;;;6.50;99.90;;;;;;5090474;28;20039;-71
2022/11/07 02:40:03;;;;;;;2.80;1.48;;;6.70;99.90;;;;;;5090909;28;20519;-70
2022/11/07 02:42:42;;;;;;;1.15;1.15;;;6.40;99.90;;;;;;5076310;28;20063;-72
2022/11/07 02:45:17;;;;;;;10.18;3.60;;;6.60;99.90;;;;;;5070631;28;20498;-71
2022/11/07 02:47:43;;;;;;;2.00;1.90;;;6.60;99.90;;;;;;5087102;28;20032;-70
2022/11/07 02:50:11;;;;;;;3.37;3.13;;;6.10;99.90;;;;;;5090389;28;20036;-71
2022/11/07 02:52:36;;;;;;;2.10;2.00;;;6.40;99.90;;;;;;5078119;28;20108;-70
2022/11/07 02:55:04;;;;;;;3.33;3.13;;;6.50;99.90;;;;;;5070151;28;20075;-70
2022/11/07 02:57:30;;;;;;;1.98;1.77;;;6.70;99.90;;;;;;5070067;28;20123;-70
2022/11/07 02:59:56;;;;;;;2.40;2.30;;;6.70;99.90;;;;;;5069863;28;20131;-71
2022/11/07 03:02:22;;;;;;;2.45;2.30;;;6.50;99.90;;;;;;5052919;28;20028;-71
2022/11/07 03:04:48;;;;;;;1.38;1.35;;;6.50;99.90;;;;;;5069914;28;20056;-71
2022/11/07 03:07:14;;;;;;;2.10;1.60;;;6.60;99.90;;;;;;5070010;28;20060;-71
2022/11/07 03:09:40;;;;;;;3.03;1.90;;;;;;;;;;5069912;28;20040;-71
2022/11/07 03:12:05;;;;;;;2.40;1.20;;;6.40;99.90;;;;;;5052401;28;20035;-70
2022/11/07 03:14:31;;;;;;;2.23;2.03;;;;;;;;;;5069788;28;20614;-71
2022/11/07 03:16:57;;;;;;;2.35;2.22;;;6.60;99.90;;;;;;5084507;28;20032;-71
2022/11/07 03:19:23;;;;;;;2.20;2.07;;;6.80;99.90;;;;;;5090046;28;20028;-69
2022/11/07 03:21:49;;;;;;;3.47;2.47;;;6.80;99.90;;;;;;5080524;28;20074;-69
2022/11/07 03:24:15;;;;;;;3.85;2.88;;;6.80;99.90;;;;;;5051731;28;20037;-72
2022/11/07 03:26:41;;;;;;;3.00;2.80;;;6.60;99.90;;;;;;5069866;28;20028;-71
2022/11/07 03:29:06;;;;;;;2.17;2.07;;;6.70;99.90;;;;;;5051453;28;20049;-72
2022/11/07 03:31:32;;;;;;;5.10;2.83;;;6.60;99.90;;;;;;5089873;28;20503;-69
2022/11/07 03:33:58;;;;;;;2.80;2.60;;;6.70;99.90;;;;;;5075354;28;20031;-71
2022/11/07 03:36:24;;;;;;;0.73;0.73;;;;;;;;;;5093582;28;20024;-71
2022/11/07 03:38:49;;;;;;;1.30;1.20;;;6.80;99.90;;;;;;5093969;28;20027;-71
2022/11/07 03:41:16;;;;;;;2.70;2.50;;;6.70;99.90;;;;;;5092355;28;20759;-70
2022/11/07 03:43:44;;;;;;;1.92;1.60;;;6.80;99.90;;;;;;5075272;28;20024;-70
2022/11/07 03:46:10;;;;;;;1.67;1.38;;;6.80;99.90;;;;;;5092031;28;20404;-71
2022/11/07 03:48:36;;;;;;;1.95;1.83;;;7.00;99.90;;;;;;5093327;28;20036;-70
2022/11/07 03:51:02;;;;;;;6.05;2.40;;;6.40;99.90;;;;;;5085770;28;20037;-70
2022/11/07 03:53:28;;;;;;;5.27;2.83;;;6.60;99.90;;;;;;5073218;28;20028;-71
2022/11/07 03:55:55;;;;;;;2.47;2.37;;;6.70;99.90;;;;;;5072918;28;20273;-70
2022/11/07 03:58:21;;;;;;;4.50;3.22;;;6.80;99.90;;;;;;5054597;28;20207;-72
2022/11/07 04:00:46;;;;;;;1.83;1.73;;;7.00;99.90;;;;;;5068730;28;20036;-71
2022/11/07 04:03:12;;;;;;;1.83;1.73;;;6.60;99.90;;;;;;5092971;28;20085;-70
2022/11/07 04:05:38;;;;;;;1.37;1.30;;;6.80;99.90;;;;;;5092979;28;20073;-71
2022/11/07 04:08:03;;;;;;;2.13;1.90;;;6.50;99.90;;;;;;5093091;28;20028;-71
2022/11/07 04:10:30;;;;;;;1.27;1.23;;;;;;;;;;5083194;28;20422;-70
2022/11/07 04:18:27;;;;;;;1.38;1.30;;;6.90;99.90;;;;;;5093348;28;20085;-71
2022/11/07 04:20:52;;;;;;;1.30;1.20;;;6.80;99.90;;;;;;5083345;28;20029;-70
2022/11/07 04:23:18;;;;;;;0.93;0.93;;;7.00;99.90;;;;;;5072702;28;20032;-70
2022/11/07 04:28:27;;;;;;;3.97;1.50;;;6.70;99.90;;;;;;5072291;28;20032;-71
2022/11/07 04:30:55;;;;;;;1.10;1.10;;;7.00;99.90;;;;;;5073343;28;20408;-70
2022/11/07 04:33:21;;;;;;;2.75;2.55;;;6.80;99.90;;;;;;5054138;28;20074;-71
2022/11/07 04:35:46;;;;;;;1.27;1.23;;;6.60;99.90;;;;;;5054040;28;20032;-71
2022/11/07 04:38:12;;;;;;;1.87;1.77;;;6.70;99.90;;;;;;5072116;28;20064;-70
2022/11/07 04:40:37;;;;;;;0.47;0.47;;;6.80;99.90;;;;;;5072818;28;20119;-72
2022/11/07 04:43:07;;;;;;;1.53;1.43;;;;;;;;;;5054271;28;20505;-72
2022/11/07 04:45:37;;;;;;;1.02;0.98;;;7.00;99.90;;;;;;5086451;28;20036;-71
2022/11/07 04:48:04;;;;;;;1.58;1.48;;;7.10;99.90;;;;;;5074103;28;20115;-71
2022/11/07 04:50:30;;;;;;;4.18;2.10;;;7.80;99.90;;;;;;5082573;28;20044;-71
2022/11/07 04:52:56;;;;;;;2.60;2.40;;;6.90;99.90;;;;;;5071791;28;20039;-70
2022/11/07 04:55:25;;;;;;;1.93;1.07;;;6.40;99.90;;;;;;5071933;28;20022;-71
2022/11/07 04:57:51;;;;;;;1.58;1.48;;;6.60;99.90;;;;;;5071747;28;20542;-71
2022/11/07 05:00:19;;;;;;;4.13;2.30;;;7.40;99.90;;;;;;5070124;28;20119;-72
2022/11/07 05:02:45;;;;;;;3.20;1.90;;;6.80;99.90;;;;;;5073686;28;20471;-71
2022/11/07 05:05:11;;;;;;;3.50;3.30;;;7.00;99.90;;;;;;5071983;28;20096;-71
2022/11/07 05:07:37;;;;;;;2.33;2.15;;;;;;;;;;5092089;28;20040;-71
2022/11/07 05:10:04;;;;;;;4.45;2.55;;;7.00;99.90;;;;;;5060853;28;20055;-71
2022/11/07 05:12:30;;;;;;;1.70;1.60;;;;;;;;;;5071392;28;20032;-71
2022/11/07 05:14:56;;;;;;;4.03;3.72;;;;;;;;;;5083879;28;20039;-71
2022/11/07 05:17:22;;;;;;;1.90;1.80;;;6.80;99.90;;;;;;5091700;28;20451;-70
2022/11/07 05:19:48;;;;;;;2.77;2.53;;;6.90;99.90;;;;;;5046624;28;20064;-69
2022/11/07 05:24:57;;;;;;;0.85;0.85;;;6.90;99.90;;;;;;5051609;28;20040;-71
2022/11/07 05:27:24;;;;;;;1.27;1.27;;;7.80;99.90;;;;;;5049812;28;20025;-72
2022/11/07 05:29:49;;;;;;;2.72;2.55;;;6.80;99.90;;;;;;5084919;28;20078;-71
2022/11/07 05:32:15;;;;;;;1.10;1.10;;;7.00;99.90;;;;;;5091305;28;20095;-72
2022/11/07 05:34:41;;;;;;;0.70;0.70;;;7.20;99.90;;;;;;5073055;28;20026;-72
2022/11/07 05:37:11;;;;;;;5.40;3.97;;;6.60;99.90;;;;;;5073122;28;20042;-71
2022/11/07 05:39:37;;;;;;;1.98;1.88;;;7.00;99.90;;;;;;5078850;28;20064;-72
2022/11/07 05:42:03;;;;;;;1.63;1.53;;;7.10;99.90;;;;;;5070977;28;20441;-72
2022/11/07 05:44:29;;;;;;;3.23;2.93;;;7.00;99.90;;;;;;5064896;28;20678;-71
2022/11/07 05:46:56;;;;;;;1.80;1.70;;;6.70;99.90;;;;;;5091463;28;20050;-71
2022/11/07 05:49:25;;;;;;;2.08;1.88;;;7.20;99.90;;;;;;5083999;28;20047;-71
2022/11/07 05:51:50;;;;;;;2.33;1.88;;;7.20;99.90;;;;;;5070704;28;20028;-71
2022/11/07 05:54:16;;;;;;;1.33;1.23;;;7.00;99.90;;;;;;5070451;28;20055;-70
2022/11/07 05:56:42;;;;;;;1.13;1.13;;;7.00;99.90;;;;;;5052740;28;20024;-71
2022/11/07 05:59:09;;;;;;;1.15;1.15;;;6.90;99.90;;;;;;5072015;28;20021;-70
2022/11/07 06:01:35;;;;;;;;;;;6.90;99.90;;;;;;5070900;28;20063;-71
2022/11/07 06:04:03;;;;;;;1.95;1.85;;;6.80;99.90;;;;;;5071181;28;19957;-70
2022/11/07 06:06:30;;;;;;;1.83;1.73;;;7.00;99.90;;;;;;5070516;28;20475;-71
2022/11/07 06:08:56;;;;;;;1.48;1.10;;;7.40;99.90;;;;;;5061684;28;20032;-71
2022/11/07 06:11:22;;;;;;;0.98;0.98;;;;;;;;;;5089047;28;20062;-70
2022/11/07 06:13:48;;;;;;;1.05;1.05;;;7.20;99.90;;;;;;5080256;28;20158;-71
2022/11/07 06:16:16;;;;;;;2.40;2.20;;;6.90;99.90;;;;;;5052503;28;20127;-71
2022/11/07 06:18:42;;;;;;;3.67;3.38;;;6.90;99.90;;;;;;5072009;28;20024;-71
2022/11/07 06:21:07;;;;;;;2.37;2.17;;;6.80;99.90;;;;;;5090981;28;20035;-70
2022/11/07 06:23:33;;;;;;;1.47;1.37;;;6.80;99.90;;;;;;5090504;28;20463;-71
2022/11/07 06:25:58;;;;;;;2.43;2.03;;;7.20;99.90;;;;;;5064664;28;20450;-71
2022/11/07 06:28:24;;;;;;;3.60;3.30;;;;;;;;;;5056836;28;20115;-71
2022/11/07 06:30:50;;;;;;;1.02;1.02;;;7.10;99.90;;;;;;5072318;28;20085;-71
2022/11/07 06:33:17;;;;;;;1.67;1.50;;;7.70;99.90;;;;;;5090694;28;20032;-71
2022/11/07 06:35:44;;;;;;;0.82;0.82;;;7.00;99.90;;;;;;5072337;28;20438;-71
2022/11/07 06:38:12;;;;;;;2.25;2.00;;;7.50;99.90;;;;;;5089131;28;20031;-71
2022/11/07 06:40:41;;;;;;;1.50;1.40;;;7.00;99.90;;;;;;5072453;28;20039;-71
2022/11/07 06:43:09;;;;;;;1.85;1.70;;;6.90;99.90;;;;;;5071990;28;20056;-71
2022/11/07 06:45:36;;;;;;;1.77;1.67;;;6.60;99.90;;;;;;5090454;28;20028;-71
2022/11/07 06:48:01;;;;;;;1.58;1.48;;;6.90;99.90;;;;;;5090360;28;20024;-70
2022/11/07 06:50:27;;;;;;;1.17;0.83;;;6.90;99.90;;;;;;5090360;28;20040;-71
2022/11/07 06:52:53;;;;;;;0.50;0.50;;;;;;;;;;5088682;28;20075;-71
2022/11/07 06:55:20;;;;;;;0.90;0.90;;;;;;;;;;5090210;28;20116;-71
2022/11/07 06:57:47;;;;;;;1.85;1.73;;;6.90;99.90;;;;;;5090313;28;20038;-72
2022/11/07 07:00:13;;;;;;;1.42;1.33;;;7.00;99.90;;;;;;5056363;28;20064;-71
2022/11/07 07:02:39;;;;;;;0.88;0.82;;;7.00;99.90;;;;;;5051945;28;20060;-71
2022/11/07 07:05:05;;;;;;;3.10;1.73;;;6.60;99.90;;;;;;5070298;28;20064;-71
2022/11/07 07:07:31;;;;;;;2.97;1.25;;;11.50;99.90;;;;;;5074796;28;20375;-71
2022/11/07 07:09:56;;;;;;;0.80;0.80;;;7.10;99.90;;;;;;5073971;28;20039;-71
2022/11/07 07:12:22;;;;;;;4.30;1.50;;;7.00;99.90;;;;;;5073814;28;20028;-71
2022/11/07 07:14:48;;;;;;;1.63;1.53;;;6.90;99.90;;;;;;5083424;28;20035;-71
2022/11/07 07:17:14;;;;;;;1.17;1.17;;;6.70;99.90;;;;;;5075835;28;20071;-71
2022/11/07 07:19:40;;;;;;;1.83;1.70;;;7.10;99.90;;;;;;5093832;28;20231;-71
2022/11/07 07:22:12;;;;;;;2.23;2.10;;;7.20;99.90;;;;;;5093868;28;20020;-70
2022/11/07 07:24:37;;;;;;;0.93;0.93;;;7.20;99.90;;;;;;5074066;28;20181;-71
2022/11/07 07:27:03;;;;;;;8.77;3.80;;;7.20;99.90;;;;;;5094273;28;20505;-71
2022/11/07 07:29:28;;;;;;;0.87;0.87;;;7.00;99.90;;;;;;5087694;28;20056;-70
2022/11/07 07:31:54;;;;;;;1.43;1.37;;;6.90;99.90;;;;;;5080372;28;20039;-71
2022/11/07 07:34:20;;;;;;;2.17;2.00;;;7.00;99.90;;;;;;5075318;28;20505;-71
2022/11/07 07:36:45;;;;;;;1.80;1.67;;;7.10;99.90;;;;;;5093815;28;20046;-71
2022/11/07 07:39:11;;;;;;;1.07;1.03;;;7.80;99.90;;;;;;5092339;28;20083;-72
2022/11/07 07:41:36;;;;;;;4.33;4.03;;;7.10;99.90;;;;;;5093306;28;20032;-71
2022/11/07 07:44:02;;;;;;;1.47;1.37;;;6.80;99.90;;;;;;5093910;28;20394;-71
2022/11/07 07:46:28;;;;;;;0.80;0.80;;;;;;;;;;5055136;28;20043;-71
2022/11/07 07:48:53;;;;;;;2.73;2.53;;;7.10;99.90;;;;;;5073533;28;20059;-72
2022/11/07 07:51:19;;;;;;;0.87;0.87;;;6.90;99.90;;;;;;5073375;28;20102;-70
2022/11/07 07:53:45;;;;;;;2.83;1.47;;;6.90;99.90;;;;;;5081039;28;20476;-70
2022/11/07 07:56:10;;;;;;;1.77;1.67;;;7.00;99.90;;;;;;5075042;28;20548;-71
2022/11/07 07:58:37;;;;;;;0.63;0.63;;;7.20;99.90;;;;;;5093403;28;20034;-71
2022/11/07 08:01:08;;;;;;;0.63;0.63;;;6.90;99.90;;;;;;5072997;28;20051;-70
2022/11/07 08:03:34;;;;;;;1.63;1.52;;;7.10;99.90;;;;;;5076131;28;20494;-71
2022/11/07 08:06:01;;;;;;;2.53;1.80;;;7.30;99.90;;;;;;5054697;28;20038;-71
2022/11/07 08:08:26;;;;;;;1.77;1.60;;;7.40;99.90;;;;;;5073919;28;20059;-71
2022/11/07 08:10:55;;;;;;;0.67;0.67;;;7.00;99.90;;;;;;5072679;28;20484;-71
2022/11/07 08:13:23;;;;;;;0.40;0.40;;;7.20;99.90;;;;;;5072431;28;20032;-72
2022/11/07 08:15:49;;;;;;;0.98;0.98;;;7.10;99.90;;;;;;5064077;28;20503;-71
2022/11/07 08:18:15;;;;;;;1.27;1.17;;;7.30;99.90;;;;;;5093165;28;20047;-71
2022/11/07 08:20:41;;;;;;;1.35;1.27;;;7.10;99.90;;;;;;5092782;28;20051;-71
2022/11/07 08:23:08;;;;;;;1.23;1.17;;;7.00;99.90;;;;;;5091727;28;20024;-73
2022/11/07 08:25:34;;;;;;;2.40;1.83;;;6.90;99.90;;;;;;5052443;28;20041;-71
2022/11/07 08:28:00;;;;;;;2.53;1.27;;;7.40;99.90;;;;;;5052527;28;20035;-72
2022/11/07 08:30:27;;;;;;;4.03;1.33;;;7.40;99.90;;;;;;5062166;28;20048;-72
2022/11/07 08:32:52;;;;;;;2.60;2.40;;;6.90;99.90;;;;;;5091030;28;20039;-71
2022/11/07 08:35:18;;;;;;;1.83;1.37;;;7.20;99.90;;;;;;5091776;28;20040;-71
2022/11/07 08:37:44;;;;;;;0.97;0.93;;;6.90;99.90;;;;;;5092738;28;20036;-72
2022/11/07 08:40:10;;;;;;;2.10;2.00;;;6.80;99.90;;;;;;5078995;28;20531;-70
2022/11/07 08:42:35;;;;;;;0.88;0.88;;;7.00;99.90;;;;;;5054097;28;20119;-71
2022/11/07 08:45:01;;;;;;;1.53;1.43;;;7.30;99.90;;;;;;5072169;28;20464;-70
2022/11/07 08:47:27;;;;;;;1.70;1.60;;;7.30;99.90;;;;;;5091518;28;20032;-70
2022/11/07 08:49:53;;;;;;;0.90;0.90;;;7.30;99.90;;;;;;5092080;28;20103;-71
2022/11/07 08:52:18;;;;;;;1.60;1.47;;;7.40;99.90;;;;;;5092178;28;20123;-74
2022/11/07 08:54:45;;;;;;;3.40;1.63;;;;;;;;;;5066004;28;20078;-72
2022/11/07 08:57:10;;;;;;;2.30;2.10;;;7.40;99.90;;;;;;5053751;28;20036;-70
2022/11/07 08:59:36;;;;;;;1.07;1.00;;;;;;;;;;5071919;28;20456;-71
2022/11/07 09:02:02;;;;;;;1.37;1.33;;;7.40;99.90;;;;;;5054642;28;20031;-70
2022/11/07 09:04:28;;;;;;;1.10;1.10;;;7.30;99.90;;;;;;5071943;28;20033;-71
2022/11/07 09:06:55;;;;;;;1.43;1.33;;;7.20;99.90;;;;;;5072069;28;20376;-70
2022/11/07 09:09:21;;;;;;;1.38;1.27;;;7.80;99.90;;;;;;5072686;28;20333;-71
2022/11/07 09:11:47;;;;;;;0.67;0.67;;;;;;;;;;5072073;28;20036;-70
2022/11/07 09:14:12;;;;;;;2.20;1.67;;;7.10;99.90;;;;;;5072053;28;20029;-71
2022/11/07 09:16:38;;;;;;;1.33;1.27;;;7.40;99.90;;;;;;5072606;28;20631;-72
2022/11/07 09:19:04;;;;;;;2.20;2.07;;;;;;;;;;5071548;28;20033;-69
2022/11/07 09:21:30;;;;;;;3.73;3.20;;;7.30;99.90;;;;;;5053516;28;20051;-70
2022/11/07 09:23:55;;;;;;;1.77;1.67;;;7.20;99.90;;;;;;5071982;28;20348;-70
2022/11/07 09:26:21;;;;;;;1.60;1.50;;;7.40;99.90;;;;;;5088304;28;20468;-69
2022/11/07 09:28:46;;;;;;;2.47;2.33;;;7.50;99.90;;;;;;5072740;28;20075;-69
2022/11/07 09:31:12;;;;;;;1.97;1.87;;;7.10;99.90;;;;;;5087437;28;20067;-69
2022/11/07 09:33:38;;;;;;;2.50;2.33;;;7.50;99.90;;;;;;5071305;28;20420;-69
2022/11/07 09:36:04;;;;;;;1.43;1.43;;;7.00;99.90;;;;;;5071533;28;20082;-70
2022/11/07 09:38:31;;;;;;;1.42;1.33;;;7.20;99.90;;;;;;5071213;28;20060;-70
2022/11/07 09:41:04;;;;;;;1.30;1.25;;;7.20;99.90;;;;;;5053781;28;20033;-70
2022/11/07 09:43:44;;;;;;;1.60;1.50;;;7.10;99.90;;;;;;5071462;28;20029;-70
2022/11/07 09:46:29;;;;;;;15.70;0.95;;;7.20;99.90;;;;;;5072253;28;20032;-70
2022/11/07 09:49:09;;;;;;;3.00;1.58;;;7.10;99.90;;;;;;5091061;28;20107;-72
2022/11/07 09:51:37;;;;;;;1.90;1.70;;;7.20;99.90;;;;;;5073458;28;20028;-71
2022/11/07 09:54:24;;;;;;;1.42;1.35;;;7.30;99.90;;;;;;5088165;28;20073;-72
2022/11/07 09:56:50;;;;;;;0.40;0.40;;;7.20;99.90;;;;;;5073112;28;20120;-70
2022/11/07 09:59:46;;;;;;;0.40;0.40;;;6.90;99.90;;;;;;5071158;28;20028;-69
2022/11/07 10:02:15;;;;;;;1.50;1.40;;;7.00;99.90;;;;;;5071981;28;20024;-71
2022/11/07 10:04:41;;;;;;;1.38;1.33;;;7.00;99.90;;;;;;5070572;28;20036;-71
2022/11/07 10:07:40;;;;;;;0.75;0.75;;;6.90;99.90;;;;;;5071214;28;20480;-70
2022/11/07 10:10:12;;;;;;;2.40;2.22;;;6.80;99.90;;;;;;5065884;28;20751;-71
2022/11/07 10:13:19;;;;;;;2.25;2.10;;;6.70;99.90;;;;;;5090654;28;20039;-70
2022/11/07 10:16:17;;;;;;;1.98;1.88;;;6.90;99.90;;;;;;5090518;28;20123;-70
2022/11/07 10:18:56;;;;;;;1.15;1.15;;;6.40;99.90;;;;;;5054331;28;20120;-71
2022/11/07 10:21:37;;;;;;;0.70;0.70;;;6.90;99.90;;;;;;5052295;28;20039;-71
2022/11/07 10:24:29;;;;;;;0.60;0.60;;;6.60;99.90;;;;;;5070162;28;20025;-71
2022/11/07 10:26:56;;;;;;;3.40;3.13;;;6.70;99.90;;;;;;5073950;28;20048;-70
2022/11/07 10:29:23;;;;;;;;;;;6.70;99.90;;;;;;5091355;28;20123;-70
2022/11/07 10:32:17;;;;;;;2.10;1.40;;;6.80;99.90;;;;;;5090045;28;20007;-71
2022/11/07 10:34:48;;;;;;;3.25;2.75;;;6.30;99.90;;;;;;5072344;28;20036;-71
2022/11/07 10:37:13;;;;;;;0.68;0.68;;;6.50;99.90;;;;;;5090335;28;20028;-69
2022/11/07 10:39:39;;;;;;;1.17;1.17;;;6.20;99.90;;;;;;5090231;28;20078;-70
2022/11/07 10:42:09;;;;;;;0.80;0.80;;;6.60;99.90;;;;;;5075591;28;20032;-71
2022/11/07 10:44:40;;;;;;;1.25;1.25;;;6.30;99.90;;;;;;5078807;28;20553;-70
2022/11/07 10:47:40;;;;;;;2.05;1.95;;;6.60;99.90;;;;;;5073623;28;20503;-70
2022/11/07 10:50:21;;;;;;;1.08;1.08;;;6.60;99.90;;;;;;5010406;28;20037;-70
2022/11/07 10:52:57;;;;;;;2.08;1.38;;;6.60;99.90;;;;;;5061752;28;20040;-69
2022/11/07 10:55:23;;;;;;;3.00;2.10;;;6.50;99.90;;;;;;5062510;28;20052;-67
2022/11/07 10:57:58;;;;;;;0.60;0.60;;;6.60;99.90;;;;;;5065061;28;20796;-71
2022/11/07 11:00:30;;;;;;;1.70;1.55;;;6.60;99.90;;;;;;5056746;28;20029;-72
2022/11/07 11:02:56;;;;;;;0.85;0.85;;;6.80;99.90;;;;;;5067703;28;20388;-71
2022/11/07 11:05:39;;;;;;;1.52;1.42;;;6.60;99.90;;;;;;5058891;28;20039;-71
2022/11/07 11:08:15;;;;;;;1.10;1.10;;;6.50;99.90;;;;;;5071863;28;20036;-68
2022/11/07 11:10:41;;;;;;;1.10;1.10;;;6.60;99.90;;;;;;5068848;28;20419;-69
2022/11/07 11:13:25;;;;;;;1.70;1.60;;;6.70;99.90;;;;;;5062171;28;20071;-69
2022/11/07 11:15:50;;;;;;;2.83;2.63;;;6.80;99.90;;;;;;5054655;28;20024;-68
2022/11/07 11:18:17;;;;;;;0.70;0.70;;;6.50;99.90;;;;;;5068992;28;20055;-67
2022/11/07 11:20:45;;;;;;;;;;;6.70;99.90;;;;;;5075621;28;20032;-68
2022/11/07 11:23:25;;;;;;;0.77;0.77;;;6.80;99.90;;;;;;5074907;28;19928;-67
2022/11/07 11:25:58;;;;;;;1.00;1.00;;;6.70;99.90;;;;;;5073201;28;20472;-67
2022/11/07 11:29:08;;;;;;;1.25;1.23;;;6.90;99.90;;;;;;5043196;28;20033;-69
2022/11/07 11:31:45;;;;;;;0.40;0.40;;;6.90;99.90;;;;;;4973620;28;20046;-69
2022/11/07 11:34:29;;;;;;;2.40;2.25;;;6.90;99.90;;;;;;4957637;28;20152;-68
2022/11/07 11:37:09;;;;;;;2.45;2.25;;;6.90;99.90;;;;;;5026551;28;20083;-68
2022/11/07 11:40:06;;;;;;;0.77;0.77;;;6.90;99.90;;;;;;5085965;28;20029;-68
2022/11/07 11:42:58;;;;;;;1.67;1.57;;;6.90;99.90;;;;;;5049978;28;20040;-67
2022/11/07 11:45:59;;;;;;;2.42;2.22;;;7.60;99.90;;;;;;5095402;28;20352;-66
2022/11/07 11:48:28;;;;;;;2.03;1.92;;;6.90;99.90;;;;;;5036471;28;20057;-69
2022/11/07 11:50:54;;;;;;;1.05;1.05;;;6.70;99.90;;;;;;5054422;28;20029;-68
2022/11/07 11:53:21;;;;;;;0.40;0.40;;;7.00;99.90;;;;;;5054383;28;20029;-68
2022/11/07 11:56:07;;;;;;;3.22;2.60;;;7.00;99.90;;;;;;5054938;28;20033;-68
2022/11/07 11:58:46;;;;;;;1.80;1.05;;;7.00;99.90;;;;;;5072375;28;20028;-68
2022/11/07 12:01:38;;;;;;;1.63;1.52;;;7.10;99.90;;;;;;5044036;28;20098;-69
2022/11/07 12:04:24;;;;;;;1.60;1.52;;;7.20;99.90;;;;;;5073912;28;20028;-68
2022/11/07 12:06:53;;;;;;;0.57;0.57;;;7.10;99.90;;;;;;5066102;28;20028;-68
2022/11/07 12:09:44;;;;;;;1.05;1.05;;;7.10;99.90;;;;;;5062478;28;20078;-67
2022/11/07 12:12:24;;;;;;;3.60;1.63;;;7.20;99.90;;;;;;5065198;28;20067;-68
2022/11/07 12:15:02;;;;;;;0.85;0.85;;;7.20;99.90;;;;;;5072040;28;20060;-68
2022/11/07 12:17:40;;;;;;;0.70;0.70;;;7.20;99.90;;;;;;5074381;28;20051;-68
2022/11/07 12:20:11;;;;;;;0.95;0.95;;;7.20;99.90;;;;;;5061705;28;20029;-68
2022/11/07 12:22:46;;;;;;;1.50;1.40;;;7.30;99.90;;;;;;5054707;28;20496;-67
2022/11/07 12:25:34;;;;;;;3.90;3.58;;;7.10;99.90;;;;;;5062138;28;20024;-67
2022/11/07 12:28:27;;;;;;;2.08;1.92;;;7.60;99.90;;;;;;5059411;28;20032;-67
2022/11/07 12:31:12;;;;;;;2.13;2.03;;;7.20;99.90;;;;;;5063118;28;20064;-68
2022/11/07 12:33:44;;;;;;;1.40;0.88;;;7.00;99.90;;;;;;5072054;28;20504;-68
2022/11/07 12:36:29;;;;;;;0.55;0.55;;;7.10;99.90;;;;;;5054039;28;20393;-70
2022/11/07 12:38:57;;;;;;;1.65;1.55;;;7.30;99.90;;;;;;5053671;28;20032;-69
2022/11/07 12:41:52;;;;;;;1.63;1.52;;;7.30;99.90;;;;;;5053890;28;20460;-69
2022/11/07 12:44:30;;;;;;;1.83;1.70;;;7.60;99.90;;;;;;5059448;28;20507;-68
2022/11/07 12:46:58;;;;;;;2.05;1.95;;;7.30;99.90;;;;;;5073697;28;20032;-68
2022/11/07 12:49:49;;;;;;;1.35;1.30;;;7.30;99.90;;;;;;5063511;28;20112;-69
2022/11/07 12:52:34;;;;;;;0.63;0.63;;;6.90;99.90;;;;;;5058710;28;20039;-69
2022/11/07 12:55:30;;;;;;;1.42;1.33;;;7.00;99.90;;;;;;5057763;28;20500;-70
2022/11/07 12:57:58;;;;;;;0.38;0.38;;;6.80;99.90;;;;;;5072155;28;20024;-71
2022/11/07 13:00:28;;;;;;;1.88;1.77;;;6.70;99.90;;;;;;5044290;28;20039;-72
2022/11/07 13:02:56;;;;;;;2.55;1.30;;;6.90;99.90;;;;;;5059362;28;20094;-72
2022/11/07 13:05:59;;;;;;;2.45;2.25;;;7.30;99.90;;;;;;5057980;28;20044;-71
2022/11/07 13:08:25;;;;;;;1.33;1.27;;;7.00;99.90;;;;;;5057322;28;20400;-71
2022/11/07 13:11:28;;;;;;;1.00;1.00;;;7.00;99.90;;;;;;5063682;28;20036;-71
2022/11/07 13:14:08;;;;;;;1.70;1.60;;;7.00;99.90;;;;;;5059245;28;20119;-70
2022/11/07 13:16:35;;;;;;;0.70;0.70;;;7.70;99.90;;;;;;5071245;28;20078;-71
2022/11/07 13:19:21;;;;;;;2.50;1.48;;;7.30;99.90;;;;;;5070445;28;20051;-71
2022/11/07 13:22:01;;;;;;;1.52;1.42;;;7.30;99.90;;;;;;5077732;28;20025;-72
2022/11/07 13:24:28;;;;;;;4.88;4.30;;;3.30;99.90;;;;;;5074770;28;20028;-69
2022/11/07 13:26:56;;;;;;;1.70;1.60;;;7.30;99.90;;;;;;5075015;28;20047;-68
2022/11/07 13:29:36;;;;;;;1.67;1.58;;;7.00;99.90;;;;;;5076850;28;20594;-68
2022/11/07 13:32:08;;;;;;;0.88;0.88;;;7.30;99.90;;;;;;5072842;28;20853;-70
2022/11/07 13:34:55;;;;;;;0.82;0.82;;;7.00;99.90;;;;;;5056222;28;20020;-68